Time,TemperatureF,DewpointF,PressureIn,WindDirection,WindDirectionDegrees,WindSpeedMPH,WindSpeedGustMPH,Humidity,HourlyPrecipIn,Conditions,Clouds,dailyrainin,SoftwareType,DateUTC
2013-04-19 00:04:00,68.0,62.0,29.95,ENE,71,5.0,16.0,81,0.00,,,0.00,weatherlink.com 1.10,2013-04-19 04:04:00,
2013-04-19 00:19:00,67.4,62.0,29.94,East,98,5.0,15.0,82,0.00,,,0.00,weatherlink.com 1.10,2013-04-19 04:19:00,
2013-04-19 00:34:00,66.8,62.0,29.94,East,94,13.0,15.0,84,0.00,,,0.00,weatherlink.com 1.10,2013-04-19 04:34:00,
2013-04-19 00:49:00,66.3,62.0,29.94,ESE,121,2.0,12.0,86,0.00,,,0.00,weatherlink.com 1.10,2013-04-19 04:49:00,
2013-04-19 01:05:00,66.0,62.0,29.94,East,81,5.0,11.0,86,0.00,,,0.00,weatherlink.com 1.10,2013-04-19 05:05:00,
2013-04-19 01:20:00,65.9,62.0,29.93,ENE,76,5.0,10.0,87,0.00,,,0.00,weatherlink.com 1.10,2013-04-19 05:20:00,
2013-04-19 01:35:00,65.6,62.0,29.92,East,85,6.0,9.0,88,0.00,,,0.00,weatherlink.com 1.10,2013-04-19 05:35:00,
2013-04-19 01:50:00,65.4,62.0,29.91,ESE,104,7.0,13.0,88,0.00,,,0.00,weatherlink.com 1.10,2013-04-19 05:50:00,
2013-04-19 02:05:00,65.1,62.0,29.91,East,96,5.0,11.0,89,0.00,,,0.00,weatherlink.com 1.10,2013-04-19 06:05:00,
2013-04-19 02:20:00,64.9,62.0,29.90,ESE,107,4.0,10.0,90,0.00,,,0.00,weatherlink.com 1.10,2013-04-19 06:20:00,
2013-04-19 02:35:00,64.8,62.0,29.89,East,89,5.0,11.0,91,0.00,,,0.00,weatherlink.com 1.10,2013-04-19 06:35:00,
2013-04-19 02:50:00,64.6,62.0,29.89,ESE,104,1.0,8.0,92,0.00,,,0.00,weatherlink.com 1.10,2013-04-19 06:50:00,
2013-04-19 03:05:00,64.5,63.0,29.88,ESE,109,5.0,11.0,93,0.00,,,0.00,weatherlink.com 1.10,2013-04-19 07:05:00,
2013-04-19 03:20:00,64.5,63.0,29.87,ESE,112,4.0,10.0,93,0.00,,,0.00,weatherlink.com 1.10,2013-04-19 07:20:00,
2013-04-19 03:35:00,64.4,63.0,29.88,East,93,6.0,12.0,94,0.00,,,0.00,weatherlink.com 1.10,2013-04-19 07:35:00,
2013-04-19 03:50:00,64.4,63.0,29.87,ESE,104,4.0,11.0,94,0.00,,,0.00,weatherlink.com 1.10,2013-04-19 07:50:00,
2013-04-19 04:05:00,64.4,63.0,29.87,East,96,9.0,11.0,94,0.00,,,0.00,weatherlink.com 1.10,2013-04-19 08:05:00,
2013-04-19 04:20:00,64.4,63.0,29.86,East,89,1.0,11.0,95,0.00,,,0.00,weatherlink.com 1.10,2013-04-19 08:20:00,
2013-04-19 04:35:00,64.3,63.0,29.86,ESE,121,1.0,8.0,95,0.00,,,0.00,weatherlink.com 1.10,2013-04-19 08:35:00,
2013-04-19 04:50:00,64.3,63.0,29.85,East,97,11.0,13.0,95,0.00,,,0.00,weatherlink.com 1.10,2013-04-19 08:50:00,
2013-04-19 05:05:00,64.3,63.0,29.84,ESE,113,13.0,13.0,96,0.00,,,0.00,weatherlink.com 1.10,2013-04-19 09:05:00,
2013-04-19 05:20:00,64.2,63.0,29.83,ESE,106,3.0,13.0,96,0.00,,,0.00,weatherlink.com 1.10,2013-04-19 09:20:00,
2013-04-19 05:35:00,64.2,63.0,29.83,SE,131,4.0,13.0,96,0.00,,,0.00,weatherlink.com 1.10,2013-04-19 09:35:00,
2013-04-19 05:50:00,64.1,63.0,29.84,SE,129,9.0,10.0,96,0.00,,,0.00,weatherlink.com 1.10,2013-04-19 09:50:00,
2013-04-19 06:05:00,64.0,63.0,29.84,East,93,7.0,14.0,96,0.00,,,0.00,weatherlink.com 1.10,2013-04-19 10:05:00,
2013-04-19 06:20:00,64.0,63.0,29.84,ESE,112,2.0,11.0,96,0.00,,,0.00,weatherlink.com 1.10,2013-04-19 10:20:00,
2013-04-19 06:35:00,63.9,63.0,29.84,SE,129,3.0,11.0,97,0.00,,,0.00,weatherlink.com 1.10,2013-04-19 10:35:00,
2013-04-19 06:50:00,63.9,63.0,29.84,ESE,112,5.0,13.0,97,0.00,,,0.00,weatherlink.com 1.10,2013-04-19 10:50:00,
2013-04-19 07:05:00,64.0,63.0,29.84,ESE,102,7.0,12.0,97,0.00,,,0.00,weatherlink.com 1.10,2013-04-19 11:05:00,
2013-04-19 07:20:00,64.1,63.0,29.84,SE,126,3.0,16.0,97,0.00,,,0.00,weatherlink.com 1.10,2013-04-19 11:20:00,
2013-04-19 07:35:00,64.2,63.0,29.85,ESE,115,9.0,14.0,97,0.00,,,0.00,weatherlink.com 1.10,2013-04-19 11:35:00,
2013-04-19 07:50:00,64.3,64.0,29.85,ESE,114,4.0,9.0,97,0.00,,,0.00,weatherlink.com 1.10,2013-04-19 11:50:00,
2013-04-19 08:05:00,64.5,64.0,29.86,East,98,3.0,8.0,97,0.00,,,0.00,weatherlink.com 1.10,2013-04-19 12:05:00,
2013-04-19 08:20:00,64.7,64.0,29.86,ESE,108,3.0,12.0,96,0.00,,,0.00,weatherlink.com 1.10,2013-04-19 12:20:00,
2013-04-19 08:35:00,65.0,64.0,29.85,ESE,113,1.0,9.0,96,0.00,,,0.00,weatherlink.com 1.10,2013-04-19 12:35:00,
2013-04-19 08:50:00,65.7,64.0,29.84,ESE,102,2.0,15.0,95,0.00,,,0.00,weatherlink.com 1.10,2013-04-19 12:50:00,
2013-04-19 09:05:00,66.4,65.0,29.83,ESE,112,2.0,15.0,94,0.00,,,0.00,weatherlink.com 1.10,2013-04-19 13:05:00,
2013-04-19 09:20:00,66.9,65.0,29.83,ESE,106,8.0,17.0,93,0.00,,,0.00,weatherlink.com 1.10,2013-04-19 13:20:00,
2013-04-19 09:35:00,67.5,65.0,29.82,East,90,6.0,15.0,92,0.00,,,0.00,weatherlink.com 1.10,2013-04-19 13:35:00,
2013-04-19 09:50:00,67.7,65.0,29.82,East,98,9.0,17.0,91,0.00,,,0.00,weatherlink.com 1.10,2013-04-19 13:50:00,
2013-04-19 10:05:00,67.9,65.0,29.82,ESE,116,4.0,15.0,91,0.00,,,0.00,weatherlink.com 1.10,2013-04-19 14:05:00,
2013-04-19 10:21:00,69.2,66.0,29.80,ESE,118,7.0,18.0,89,0.00,,,0.00,weatherlink.com 1.10,2013-04-19 14:21:00,
2013-04-19 10:37:00,69.9,66.0,29.80,SE,126,5.0,17.0,87,0.00,,,0.00,weatherlink.com 1.10,2013-04-19 14:37:00,
2013-04-19 10:51:00,69.4,66.0,29.81,ESE,102,5.0,17.0,88,0.00,,,0.00,weatherlink.com 1.10,2013-04-19 14:51:00,
2013-04-19 11:06:00,70.0,66.0,29.80,East,101,10.0,17.0,87,0.00,,,0.00,weatherlink.com 1.10,2013-04-19 15:06:00,
2013-04-19 11:21:00,71.3,67.0,29.78,SE,131,3.0,13.0,85,0.00,,,0.00,weatherlink.com 1.10,2013-04-19 15:21:00,
2013-04-19 11:36:00,71.4,66.0,29.78,East,100,8.0,17.0,83,0.00,,,0.00,weatherlink.com 1.10,2013-04-19 15:36:00,
2013-04-19 11:51:00,71.5,66.0,29.77,SE,132,5.0,16.0,83,0.00,,,0.00,weatherlink.com 1.10,2013-04-19 15:51:00,
2013-04-19 12:06:00,71.7,66.0,29.76,ESE,120,1.0,13.0,83,0.00,,,0.00,weatherlink.com 1.10,2013-04-19 16:06:00,
2013-04-19 12:21:00,71.8,66.0,29.75,East,97,7.0,21.0,81,0.00,,,0.00,weatherlink.com 1.10,2013-04-19 16:21:00,
2013-04-19 12:36:00,72.9,66.0,29.74,East,95,9.0,22.0,79,0.00,,,0.00,weatherlink.com 1.10,2013-04-19 16:36:00,
2013-04-19 12:51:00,73.5,66.0,29.73,East,85,17.0,19.0,77,0.00,,,0.00,weatherlink.com 1.10,2013-04-19 16:51:00,
2013-04-19 13:06:00,73.3,66.0,29.73,SE,124,7.0,19.0,77,0.00,,,0.00,weatherlink.com 1.10,2013-04-19 17:06:00,
2013-04-19 13:21:00,73.3,65.0,29.72,ESE,107,3.0,18.0,76,0.00,,,0.00,weatherlink.com 1.10,2013-04-19 17:21:00,
2013-04-19 13:36:00,72.8,66.0,29.72,East,87,6.0,15.0,79,0.00,,,0.00,weatherlink.com 1.10,2013-04-19 17:36:00,
2013-04-19 13:51:00,72.7,66.0,29.72,East,93,8.0,17.0,79,0.00,,,0.00,weatherlink.com 1.10,2013-04-19 17:51:00,
2013-04-19 14:06:00,73.1,66.0,29.73,ESE,123,5.0,15.0,78,0.00,,,0.00,weatherlink.com 1.10,2013-04-19 18:06:00,
2013-04-19 14:21:00,72.4,67.0,29.73,ESE,112,5.0,15.0,82,0.00,,,0.00,weatherlink.com 1.10,2013-04-19 18:21:00,
2013-04-19 14:36:00,68.9,67.0,29.75,SE,126,1.0,8.0,93,0.10,,,0.10,weatherlink.com 1.10,2013-04-19 18:36:00,
2013-04-19 14:51:00,67.6,67.0,29.76,ESE,108,4.0,14.0,96,0.11,,,0.11,weatherlink.com 1.10,2013-04-19 18:51:00,
2013-04-19 15:06:00,67.4,67.0,29.75,ESE,107,0.0,7.0,97,0.12,,,0.12,weatherlink.com 1.10,2013-04-19 19:06:00,
2013-04-19 15:21:00,67.2,67.0,29.75,South,185,1.0,7.0,98,0.12,,,0.12,weatherlink.com 1.10,2013-04-19 19:21:00,
2013-04-19 15:36:00,67.2,67.0,29.74,SSE,152,2.0,13.0,98,0.02,,,0.12,weatherlink.com 1.10,2013-04-19 19:36:00,
2013-04-19 15:51:00,66.8,66.0,29.74,ESE,120,2.0,16.0,98,0.06,,,0.17,weatherlink.com 1.10,2013-04-19 19:51:00,
2013-04-19 16:06:00,66.3,66.0,29.74,NE,56,2.0,7.0,99,0.10,,,0.22,weatherlink.com 1.10,2013-04-19 20:06:00,
2013-04-19 16:21:00,65.6,65.0,29.75,ESE,103,8.0,13.0,99,0.16,,,0.28,weatherlink.com 1.10,2013-04-19 20:21:00,
2013-04-19 16:36:00,64.3,64.0,29.75,SE,143,7.0,14.0,98,0.19,,,0.31,weatherlink.com 1.10,2013-04-19 20:36:00,
2013-04-19 16:51:00,63.5,63.0,29.75,South,173,0.0,13.0,99,0.16,,,0.33,weatherlink.com 1.10,2013-04-19 20:51:00,
2013-04-19 17:06:00,63.0,63.0,29.74,SE,136,1.0,9.0,99,0.11,,,0.35,weatherlink.com 1.10,2013-04-19 21:06:00,
2013-04-19 17:21:00,62.6,62.0,29.74,ESE,123,1.0,10.0,99,0.07,,,0.36,weatherlink.com 1.10,2013-04-19 21:21:00,
2013-04-19 17:36:00,62.2,62.0,29.74,East,91,5.0,7.0,100,0.05,,,0.36,weatherlink.com 1.10,2013-04-19 21:36:00,
2013-04-19 17:51:00,61.9,62.0,29.74,ESE,104,2.0,7.0,100,0.03,,,0.36,weatherlink.com 1.10,2013-04-19 21:51:00,
2013-04-19 18:06:00,61.4,61.0,29.73,ESE,106,2.0,10.0,100,0.01,,,0.36,weatherlink.com 1.10,2013-04-19 22:06:00,
2013-04-19 18:21:00,61.0,61.0,29.73,East,93,6.0,11.0,100,0.01,,,0.37,weatherlink.com 1.10,2013-04-19 22:21:00,
2013-04-19 18:36:00,60.6,60.0,29.74,ESE,114,8.0,9.0,99,0.01,,,0.37,weatherlink.com 1.10,2013-04-19 22:36:00,
2013-04-19 18:51:00,60.0,59.0,29.73,ESE,118,1.0,12.0,96,0.01,,,0.37,weatherlink.com 1.10,2013-04-19 22:51:00,
2013-04-19 19:06:00,59.4,58.0,29.72,ESE,116,4.0,11.0,94,0.01,,,0.37,weatherlink.com 1.10,2013-04-19 23:06:00,
2013-04-19 19:21:00,59.0,57.0,29.73,SE,139,2.0,10.0,94,0.00,,,0.37,weatherlink.com 1.10,2013-04-19 23:21:00,
2013-04-19 19:36:00,58.2,57.0,29.74,SE,140,0.0,13.0,94,0.00,,,0.37,weatherlink.com 1.10,2013-04-19 23:36:00,
2013-04-19 19:52:00,56.7,55.0,29.73,ESE,105,4.0,13.0,92,0.00,,,0.37,weatherlink.com 1.10,2013-04-19 23:52:00,
2013-04-19 20:07:00,55.9,54.0,29.74,ESE,115,1.0,8.0,92,0.00,,,0.37,weatherlink.com 1.10,2013-04-20 00:07:00,
2013-04-19 20:22:00,55.3,53.0,29.75,ESE,113,3.0,9.0,92,0.00,,,0.37,weatherlink.com 1.10,2013-04-20 00:22:00,
2013-04-19 20:37:00,54.6,53.0,29.78,ESE,118,5.0,11.0,94,0.00,,,0.37,weatherlink.com 1.10,2013-04-20 00:37:00,
2013-04-19 20:52:00,54.2,53.0,29.78,ESE,103,2.0,8.0,96,0.00,,,0.37,weatherlink.com 1.10,2013-04-20 00:52:00,
2013-04-19 21:07:00,53.8,53.0,29.80,ESE,123,0.0,6.0,97,0.00,,,0.37,weatherlink.com 1.10,2013-04-20 01:07:00,
2013-04-19 21:22:00,53.6,53.0,29.80,ESE,109,0.0,11.0,98,0.00,,,0.37,weatherlink.com 1.10,2013-04-20 01:22:00,
2013-04-19 21:37:00,53.3,53.0,29.80,SE,126,1.0,6.0,98,0.00,,,0.37,weatherlink.com 1.10,2013-04-20 01:37:00,
2013-04-19 21:52:00,53.2,53.0,29.81,ESE,117,0.0,8.0,98,0.00,,,0.37,weatherlink.com 1.10,2013-04-20 01:52:00,
2013-04-19 22:07:00,53.0,53.0,29.82,ESE,112,4.0,7.0,98,0.00,,,0.37,weatherlink.com 1.10,2013-04-20 02:07:00,
2013-04-19 22:22:00,52.8,52.0,29.85,ESE,104,3.0,7.0,98,0.00,,,0.37,weatherlink.com 1.10,2013-04-20 02:22:00,
2013-04-19 22:37:00,52.7,52.0,29.86,SSW,204,0.0,6.0,98,0.00,,,0.37,weatherlink.com 1.10,2013-04-20 02:37:00,
2013-04-19 22:52:00,52.5,52.0,29.86,SSE,150,0.0,9.0,98,0.00,,,0.37,weatherlink.com 1.10,2013-04-20 02:52:00,
2013-04-19 23:07:00,52.3,52.0,29.87,SSW,210,0.0,8.0,98,0.00,,,0.37,weatherlink.com 1.10,2013-04-20 03:07:00,
2013-04-19 23:22:00,52.1,51.0,29.87,SSE,160,0.0,4.0,97,0.00,,,0.37,weatherlink.com 1.10,2013-04-20 03:22:00,
2013-04-19 23:37:00,51.9,51.0,29.88,South,178,0.0,3.0,97,0.00,,,0.37,weatherlink.com 1.10,2013-04-20 03:37:00,
2013-04-19 23:52:00,51.6,51.0,29.88,South,179,1.0,2.0,98,0.00,,,0.37,weatherlink.com 1.10,2013-04-20 03:52:00,